Airfield :
LOGIN :

Register | Disclaimer

   EN    FR    IT 

 










Legend :    VFR   Marginal VFR   IFR   Intensive IFR   Very Intensive IFR
Visi :
Ceiling :
>= 8 km
>= 3000ft
5 to 8 km
1000 to 3000 ft
1500m to 5 km
500 to 1000 ft
800 to 1500m
200 to 500 ft
< 800m
< 200 ft
Symbols :   Thunderstorms  Fog  Heavy snow  Heavy precipitations  Wind > 20 kt
SIGMETs :     Misc.  Thunderstorms  Icing  Turbulence  Mountain Waves  Volcanic Ashes







- Airport Elevation : 796 ft
- IATA code : SYT
- Download approach charts


LFLN - Saint-Yan

CURRENT METAR :
  • 181500Z AUTO 04005KT 010V070 CAVOK 29/13 Q1016 TEMPO 2500 -TSRA SCT045 BKN070CB OVC120

EXPIRED METARs :
  • 181430Z AUTO 09003KT 020V180 CAVOK 29/13 Q1016 TEMPO 2500 -TSRA SCT045 BKN070CB OVC120
  • 181400Z AUTO 06004KT 350V130 CAVOK 29/12 Q1016 BECMG FEW066TCU BKN200
  • 181330Z AUTO 09004KT 020V140 CAVOK 29/13 Q1016 BECMG FEW066TCU BKN200
  • 181300Z AUTO 07006KT 030V120 CAVOK 29/13 Q1016 BECMG FEW066TCU BKN200
  • 181230Z AUTO 10003KT 020V180 CAVOK 29/13 Q1017 BECMG FEW066TCU BKN200
  • 181200Z AUTO 09005KT 350V140 CAVOK 28/14 Q1017 BECMG FEW066TCU BKN200

TAF TAF LFLN
Valid from the 18 at 15:00 until the 19 at 00:00 UTC


181400Z 1815/1824 24006KT 9999 FEW070TCU BKN200
PROB40
TEMPO 1815/1819 2500 -TSRA SCT045 BKN070CB OVC120
BECMG 1819/1821 VRB03KT
No reported NOTAMs for that airfield.



MET'MAP, your aeronautical weather chart ! - Copyright ORBIFLY December 2007 - Disclaimer

ORBIFLY MET'MAP TEAM :

Programming & Development : Alexandra Zaïnal
Concept & Development : Baudouin d'Aumeries
Co-Development & Prog : Marc-Olivier Méhu
Technical & hardware support : Manuel Goepfert

Contact : metmap@orbifly.com




SOURCES & CREDITS :

   NOAA